sensor_id;sensor_type;location;lat;lon;timestamp;P1;durP1;ratioP1;P2;durP2;ratioP2
5688;SDS011;2869;50.432;8.680;2022-09-20T00:00:39;12.60;;;2.83;;
5688;SDS011;2869;50.432;8.680;2022-09-20T00:03:07;10.13;;;2.83;;
5688;SDS011;2869;50.432;8.680;2022-09-20T00:05:35;10.67;;;3.17;;
5688;SDS011;2869;50.432;8.680;2022-09-20T00:08:05;7.60;;;3.27;;
5688;SDS011;2869;50.432;8.680;2022-09-20T00:10:34;11.33;;;2.87;;
5688;SDS011;2869;50.432;8.680;2022-09-20T00:13:03;9.20;;;3.33;;
5688;SDS011;2869;50.432;8.680;2022-09-20T00:15:31;10.23;;;3.30;;
5688;SDS011;2869;50.432;8.680;2022-09-20T00:17:59;8.23;;;3.37;;
5688;SDS011;2869;50.432;8.680;2022-09-20T00:20:26;6.67;;;3.43;;
5688;SDS011;2869;50.432;8.680;2022-09-20T00:22:52;8.83;;;3.37;;
5688;SDS011;2869;50.432;8.680;2022-09-20T00:25:20;7.10;;;3.80;;
5688;SDS011;2869;50.432;8.680;2022-09-20T00:27:47;10.53;;;3.53;;
5688;SDS011;2869;50.432;8.680;2022-09-20T00:30:14;12.40;;;3.90;;
5688;SDS011;2869;50.432;8.680;2022-09-20T00:32:41;6.33;;;3.70;;
5688;SDS011;2869;50.432;8.680;2022-09-20T00:35:08;11.70;;;3.90;;
5688;SDS011;2869;50.432;8.680;2022-09-20T00:37:35;13.27;;;4.53;;
5688;SDS011;2869;50.432;8.680;2022-09-20T00:40:03;8.37;;;3.23;;
5688;SDS011;2869;50.432;8.680;2022-09-20T00:42:34;8.30;;;3.33;;
5688;SDS011;2869;50.432;8.680;2022-09-20T00:45:02;9.00;;;3.50;;
5688;SDS011;2869;50.432;8.680;2022-09-20T00:47:35;6.13;;;3.47;;
5688;SDS011;2869;50.432;8.680;2022-09-20T00:50:13;13.40;;;4.27;;
5688;SDS011;2869;50.432;8.680;2022-09-20T00:52:51;14.37;;;4.13;;
5688;SDS011;2869;50.432;8.680;2022-09-20T00:55:21;10.03;;;4.10;;
5688;SDS011;2869;50.432;8.680;2022-09-20T00:57:50;6.30;;;3.40;;
5688;SDS011;2869;50.432;8.680;2022-09-20T01:00:17;13.53;;;3.70;;
5688;SDS011;2869;50.432;8.680;2022-09-20T01:02:45;9.13;;;3.87;;
5688;SDS011;2869;50.432;8.680;2022-09-20T01:05:14;13.37;;;4.23;;
5688;SDS011;2869;50.432;8.680;2022-09-20T01:07:42;7.13;;;3.10;;
5688;SDS011;2869;50.432;8.680;2022-09-20T01:10:11;13.87;;;3.83;;
5688;SDS011;2869;50.432;8.680;2022-09-20T01:12:38;8.93;;;3.70;;
5688;SDS011;2869;50.432;8.680;2022-09-20T01:15:07;9.87;;;3.93;;
5688;SDS011;2869;50.432;8.680;2022-09-20T01:17:36;6.87;;;3.63;;
5688;SDS011;2869;50.432;8.680;2022-09-20T01:20:08;10.00;;;4.27;;
5688;SDS011;2869;50.432;8.680;2022-09-20T01:22:43;10.70;;;4.40;;
5688;SDS011;2869;50.432;8.680;2022-09-20T01:25:22;8.80;;;4.20;;
5688;SDS011;2869;50.432;8.680;2022-09-20T01:28:02;22.27;;;4.63;;
5688;SDS011;2869;50.432;8.680;2022-09-20T01:30:30;10.90;;;4.60;;
5688;SDS011;2869;50.432;8.680;2022-09-20T01:33:06;14.53;;;4.70;;
5688;SDS011;2869;50.432;8.680;2022-09-20T01:35:36;8.73;;;3.80;;
5688;SDS011;2869;50.432;8.680;2022-09-20T01:38:14;15.63;;;4.87;;
5688;SDS011;2869;50.432;8.680;2022-09-20T01:40:55;8.37;;;4.70;;
5688;SDS011;2869;50.432;8.680;2022-09-20T01:43:29;9.10;;;3.83;;
5688;SDS011;2869;50.432;8.680;2022-09-20T01:46:02;13.30;;;3.73;;
5688;SDS011;2869;50.432;8.680;2022-09-20T01:48:36;9.63;;;4.30;;
5688;SDS011;2869;50.432;8.680;2022-09-20T01:51:22;9.00;;;3.60;;
5688;SDS011;2869;50.432;8.680;2022-09-20T01:54:14;12.80;;;4.13;;
5688;SDS011;2869;50.432;8.680;2022-09-20T01:57:21;13.77;;;4.30;;
5688;SDS011;2869;50.432;8.680;2022-09-20T02:00:07;11.40;;;4.53;;
5688;SDS011;2869;50.432;8.680;2022-09-20T02:02:46;9.67;;;4.00;;
5688;SDS011;2869;50.432;8.680;2022-09-20T02:05:39;14.03;;;5.00;;
5688;SDS011;2869;50.432;8.680;2022-09-20T02:08:27;11.70;;;4.60;;
5688;SDS011;2869;50.432;8.680;2022-09-20T02:11:08;15.77;;;4.50;;
5688;SDS011;2869;50.432;8.680;2022-09-20T02:13:51;9.37;;;5.07;;
5688;SDS011;2869;50.432;8.680;2022-09-20T02:16:49;10.30;;;4.27;;
5688;SDS011;2869;50.432;8.680;2022-09-20T02:22:20;6.73;;;3.97;;
5688;SDS011;2869;50.432;8.680;2022-09-20T02:24:57;8.47;;;4.40;;
5688;SDS011;2869;50.432;8.680;2022-09-20T02:27:35;11.10;;;5.00;;
5688;SDS011;2869;50.432;8.680;2022-09-20T02:30:13;13.20;;;4.73;;
5688;SDS011;2869;50.432;8.680;2022-09-20T02:32:56;16.30;;;4.63;;
5688;SDS011;2869;50.432;8.680;2022-09-20T02:35:39;10.20;;;4.30;;
5688;SDS011;2869;50.432;8.680;2022-09-20T02:41:36;12.23;;;4.43;;
5688;SDS011;2869;50.432;8.680;2022-09-20T02:44:21;7.50;;;4.60;;
5688;SDS011;2869;50.432;8.680;2022-09-20T02:46:55;13.23;;;5.37;;
5688;SDS011;2869;50.432;8.680;2022-09-20T02:49:30;14.07;;;4.57;;
5688;SDS011;2869;50.432;8.680;2022-09-20T02:52:06;5.10;;;3.57;;
5688;SDS011;2869;50.432;8.680;2022-09-20T02:54:41;15.33;;;4.50;;
5688;SDS011;2869;50.432;8.680;2022-09-20T02:57:17;8.60;;;4.50;;
5688;SDS011;2869;50.432;8.680;2022-09-20T02:59:51;17.10;;;4.83;;
5688;SDS011;2869;50.432;8.680;2022-09-20T03:02:24;18.07;;;4.80;;
5688;SDS011;2869;50.432;8.680;2022-09-20T03:05:08;14.07;;;5.70;;
5688;SDS011;2869;50.432;8.680;2022-09-20T03:07:44;12.23;;;5.23;;
5688;SDS011;2869;50.432;8.680;2022-09-20T03:10:21;7.53;;;4.43;;
5688;SDS011;2869;50.432;8.680;2022-09-20T03:12:56;8.17;;;4.90;;
5688;SDS011;2869;50.432;8.680;2022-09-20T03:15:37;9.17;;;4.33;;
5688;SDS011;2869;50.432;8.680;2022-09-20T03:18:14;11.60;;;5.37;;
5688;SDS011;2869;50.432;8.680;2022-09-20T03:20:46;14.07;;;4.73;;
5688;SDS011;2869;50.432;8.680;2022-09-20T03:23:35;14.73;;;4.70;;
5688;SDS011;2869;50.432;8.680;2022-09-20T03:26:15;13.80;;;4.63;;
5688;SDS011;2869;50.432;8.680;2022-09-20T03:28:56;21.07;;;5.00;;
5688;SDS011;2869;50.432;8.680;2022-09-20T03:31:47;13.10;;;4.70;;
5688;SDS011;2869;50.432;8.680;2022-09-20T03:34:26;16.33;;;4.97;;
5688;SDS011;2869;50.432;8.680;2022-09-20T03:37:11;6.53;;;4.07;;
5688;SDS011;2869;50.432;8.680;2022-09-20T03:42:44;21.17;;;5.70;;
5688;SDS011;2869;50.432;8.680;2022-09-20T03:45:17;14.03;;;6.40;;
5688;SDS011;2869;50.432;8.680;2022-09-20T03:47:58;17.63;;;6.80;;
5688;SDS011;2869;50.432;8.680;2022-09-20T03:50:44;14.50;;;5.90;;
5688;SDS011;2869;50.432;8.680;2022-09-20T03:56:15;13.97;;;5.70;;
5688;SDS011;2869;50.432;8.680;2022-09-20T03:59:04;13.43;;;5.50;;
5688;SDS011;2869;50.432;8.680;2022-09-20T04:01:49;22.00;;;6.20;;
5688;SDS011;2869;50.432;8.680;2022-09-20T04:04:32;10.37;;;6.17;;
5688;SDS011;2869;50.432;8.680;2022-09-20T04:07:12;12.80;;;6.43;;
5688;SDS011;2869;50.432;8.680;2022-09-20T04:09:55;15.10;;;5.70;;
5688;SDS011;2869;50.432;8.680;2022-09-20T04:12:39;12.80;;;5.17;;
5688;SDS011;2869;50.432;8.680;2022-09-20T04:15:26;12.63;;;5.30;;
5688;SDS011;2869;50.432;8.680;2022-09-20T04:18:02;9.73;;;5.43;;
5688;SDS011;2869;50.432;8.680;2022-09-20T04:20:36;15.30;;;5.30;;
5688;SDS011;2869;50.432;8.680;2022-09-20T04:23:12;12.77;;;5.67;;
5688;SDS011;2869;50.432;8.680;2022-09-20T04:25:48;14.03;;;5.20;;
5688;SDS011;2869;50.432;8.680;2022-09-20T04:28:18;10.83;;;5.03;;
5688;SDS011;2869;50.432;8.680;2022-09-20T04:30:50;12.40;;;4.50;;
5688;SDS011;2869;50.432;8.680;2022-09-20T04:33:20;13.87;;;5.30;;
5688;SDS011;2869;50.432;8.680;2022-09-20T04:35:54;12.90;;;5.00;;
5688;SDS011;2869;50.432;8.680;2022-09-20T04:38:47;13.93;;;4.97;;
5688;SDS011;2869;50.432;8.680;2022-09-20T04:44:41;12.87;;;5.90;;
5688;SDS011;2869;50.432;8.680;2022-09-20T04:47:41;23.63;;;6.00;;
5688;SDS011;2869;50.432;8.680;2022-09-20T04:53:23;9.27;;;5.00;;
5688;SDS011;2869;50.432;8.680;2022-09-20T04:59:08;11.13;;;5.60;;
5688;SDS011;2869;50.432;8.680;2022-09-20T05:01:53;22.60;;;6.07;;
5688;SDS011;2869;50.432;8.680;2022-09-20T05:04:46;22.90;;;7.47;;
5688;SDS011;2869;50.432;8.680;2022-09-20T05:11:16;27.40;;;13.60;;
5688;SDS011;2869;50.432;8.680;2022-09-20T05:14:09;14.80;;;8.00;;
5688;SDS011;2869;50.432;8.680;2022-09-20T05:16:53;35.33;;;9.00;;
5688;SDS011;2869;50.432;8.680;2022-09-20T05:19:43;22.67;;;6.90;;
5688;SDS011;2869;50.432;8.680;2022-09-20T05:22:24;20.53;;;6.57;;
5688;SDS011;2869;50.432;8.680;2022-09-20T05:25:25;21.07;;;6.47;;
5688;SDS011;2869;50.432;8.680;2022-09-20T05:28:12;25.83;;;6.40;;
5688;SDS011;2869;50.432;8.680;2022-09-20T05:30:48;18.00;;;6.53;;
5688;SDS011;2869;50.432;8.680;2022-09-20T05:33:19;13.93;;;7.63;;
5688;SDS011;2869;50.432;8.680;2022-09-20T05:35:53;18.30;;;7.70;;
5688;SDS011;2869;50.432;8.680;2022-09-20T05:38:30;30.27;;;12.63;;
5688;SDS011;2869;50.432;8.680;2022-09-20T05:41:07;21.70;;;10.73;;
5688;SDS011;2869;50.432;8.680;2022-09-20T05:43:42;37.53;;;17.17;;
5688;SDS011;2869;50.432;8.680;2022-09-20T05:46:24;25.50;;;10.70;;
5688;SDS011;2869;50.432;8.680;2022-09-20T05:49:01;19.33;;;8.97;;
5688;SDS011;2869;50.432;8.680;2022-09-20T05:51:41;20.00;;;7.70;;
5688;SDS011;2869;50.432;8.680;2022-09-20T05:54:24;21.30;;;9.97;;
5688;SDS011;2869;50.432;8.680;2022-09-20T05:57:10;18.00;;;8.70;;
5688;SDS011;2869;50.432;8.680;2022-09-20T05:59:47;19.50;;;7.90;;
5688;SDS011;2869;50.432;8.680;2022-09-20T06:02:28;27.20;;;8.70;;
5688;SDS011;2869;50.432;8.680;2022-09-20T06:05:01;24.63;;;9.73;;
5688;SDS011;2869;50.432;8.680;2022-09-20T06:07:39;17.47;;;8.00;;
5688;SDS011;2869;50.432;8.680;2022-09-20T06:13:21;10.60;;;7.00;;
5688;SDS011;2869;50.432;8.680;2022-09-20T06:15:59;13.77;;;8.00;;
5688;SDS011;2869;50.432;8.680;2022-09-20T06:18:30;18.17;;;7.60;;
5688;SDS011;2869;50.432;8.680;2022-09-20T06:21:04;21.63;;;8.00;;
5688;SDS011;2869;50.432;8.680;2022-09-20T06:23:41;28.87;;;9.40;;
5688;SDS011;2869;50.432;8.680;2022-09-20T06:26:09;18.73;;;8.60;;
5688;SDS011;2869;50.432;8.680;2022-09-20T06:28:42;31.27;;;14.03;;
5688;SDS011;2869;50.432;8.680;2022-09-20T06:31:12;98.18;;;38.70;;
5688;SDS011;2869;50.432;8.680;2022-09-20T06:33:43;29.37;;;9.87;;
5688;SDS011;2869;50.432;8.680;2022-09-20T06:36:13;27.10;;;10.97;;
5688;SDS011;2869;50.432;8.680;2022-09-20T06:39:02;23.33;;;9.03;;
5688;SDS011;2869;50.432;8.680;2022-09-20T06:41:56;21.33;;;9.20;;
5688;SDS011;2869;50.432;8.680;2022-09-20T06:44:24;15.90;;;7.70;;
5688;SDS011;2869;50.432;8.680;2022-09-20T06:46:51;18.30;;;6.47;;
5688;SDS011;2869;50.432;8.680;2022-09-20T06:49:19;10.80;;;6.13;;
5688;SDS011;2869;50.432;8.680;2022-09-20T06:51:46;12.27;;;6.30;;
5688;SDS011;2869;50.432;8.680;2022-09-20T06:54:16;8.97;;;4.97;;
5688;SDS011;2869;50.432;8.680;2022-09-20T06:56:44;10.60;;;5.50;;
5688;SDS011;2869;50.432;8.680;2022-09-20T06:59:12;25.63;;;5.73;;
5688;SDS011;2869;50.432;8.680;2022-09-20T07:01:39;12.63;;;5.63;;
5688;SDS011;2869;50.432;8.680;2022-09-20T07:04:07;9.10;;;4.70;;
5688;SDS011;2869;50.432;8.680;2022-09-20T07:06:35;13.30;;;5.07;;
5688;SDS011;2869;50.432;8.680;2022-09-20T07:09:02;23.70;;;5.50;;
5688;SDS011;2869;50.432;8.680;2022-09-20T07:11:30;9.40;;;4.07;;
5688;SDS011;2869;50.432;8.680;2022-09-20T07:13:59;12.00;;;4.80;;
5688;SDS011;2869;50.432;8.680;2022-09-20T07:16:26;8.30;;;3.87;;
5688;SDS011;2869;50.432;8.680;2022-09-20T07:18:53;11.30;;;3.50;;
5688;SDS011;2869;50.432;8.680;2022-09-20T07:21:20;9.83;;;4.47;;
5688;SDS011;2869;50.432;8.680;2022-09-20T07:23:49;9.07;;;4.00;;
5688;SDS011;2869;50.432;8.680;2022-09-20T07:26:18;8.13;;;4.00;;
5688;SDS011;2869;50.432;8.680;2022-09-20T07:28:46;15.93;;;4.70;;
5688;SDS011;2869;50.432;8.680;2022-09-20T07:31:14;7.10;;;3.00;;
5688;SDS011;2869;50.432;8.680;2022-09-20T07:33:41;11.73;;;3.87;;
5688;SDS011;2869;50.432;8.680;2022-09-20T07:36:08;12.53;;;3.73;;
5688;SDS011;2869;50.432;8.680;2022-09-20T07:38:36;8.57;;;3.53;;
5688;SDS011;2869;50.432;8.680;2022-09-20T07:41:04;6.83;;;3.50;;
5688;SDS011;2869;50.432;8.680;2022-09-20T07:43:31;8.90;;;3.03;;
5688;SDS011;2869;50.432;8.680;2022-09-20T07:45:58;6.20;;;3.20;;
5688;SDS011;2869;50.432;8.680;2022-09-20T07:48:26;9.03;;;3.00;;
5688;SDS011;2869;50.432;8.680;2022-09-20T07:50:55;11.98;;;3.30;;
5688;SDS011;2869;50.432;8.680;2022-09-20T07:53:24;9.10;;;3.20;;
5688;SDS011;2869;50.432;8.680;2022-09-20T07:55:57;7.37;;;3.30;;
5688;SDS011;2869;50.432;8.680;2022-09-20T07:58:26;7.90;;;3.20;;
5688;SDS011;2869;50.432;8.680;2022-09-20T08:00:53;7.67;;;3.10;;
5688;SDS011;2869;50.432;8.680;2022-09-20T08:03:21;6.60;;;2.97;;
5688;SDS011;2869;50.432;8.680;2022-09-20T08:05:48;11.03;;;4.00;;
5688;SDS011;2869;50.432;8.680;2022-09-20T08:08:15;10.93;;;3.60;;
5688;SDS011;2869;50.432;8.680;2022-09-20T08:10:43;8.47;;;3.67;;
5688;SDS011;2869;50.432;8.680;2022-09-20T08:13:10;6.40;;;3.43;;
5688;SDS011;2869;50.432;8.680;2022-09-20T08:15:38;11.90;;;3.40;;
5688;SDS011;2869;50.432;8.680;2022-09-20T08:18:05;8.27;;;2.93;;
5688;SDS011;2869;50.432;8.680;2022-09-20T08:20:34;8.87;;;3.90;;
5688;SDS011;2869;50.432;8.680;2022-09-20T08:23:01;9.53;;;3.53;;
5688;SDS011;2869;50.432;8.680;2022-09-20T08:25:28;8.43;;;3.97;;
5688;SDS011;2869;50.432;8.680;2022-09-20T08:27:55;15.57;;;4.20;;
5688;SDS011;2869;50.432;8.680;2022-09-20T08:30:21;19.50;;;3.87;;
5688;SDS011;2869;50.432;8.680;2022-09-20T08:32:50;14.13;;;3.50;;
5688;SDS011;2869;50.432;8.680;2022-09-20T08:35:20;10.13;;;2.90;;
5688;SDS011;2869;50.432;8.680;2022-09-20T08:37:49;8.57;;;3.37;;
5688;SDS011;2869;50.432;8.680;2022-09-20T08:40:18;13.90;;;3.70;;
5688;SDS011;2869;50.432;8.680;2022-09-20T08:42:47;10.40;;;3.37;;
5688;SDS011;2869;50.432;8.680;2022-09-20T08:45:16;7.47;;;3.20;;
5688;SDS011;2869;50.432;8.680;2022-09-20T08:47:45;10.83;;;3.57;;
5688;SDS011;2869;50.432;8.680;2022-09-20T08:50:16;8.93;;;3.87;;
5688;SDS011;2869;50.432;8.680;2022-09-20T08:52:44;8.90;;;3.70;;
5688;SDS011;2869;50.432;8.680;2022-09-20T08:55:13;9.60;;;3.30;;
5688;SDS011;2869;50.432;8.680;2022-09-20T08:57:42;15.00;;;3.33;;
5688;SDS011;2869;50.432;8.680;2022-09-20T09:00:14;4.83;;;2.70;;
5688;SDS011;2869;50.432;8.680;2022-09-20T09:02:42;11.00;;;3.37;;
5688;SDS011;2869;50.432;8.680;2022-09-20T09:05:11;3.67;;;2.53;;
5688;SDS011;2869;50.432;8.680;2022-09-20T09:07:56;8.87;;;2.93;;
5688;SDS011;2869;50.432;8.680;2022-09-20T09:10:24;8.37;;;3.70;;
5688;SDS011;2869;50.432;8.680;2022-09-20T09:12:53;6.77;;;3.13;;
5688;SDS011;2869;50.432;8.680;2022-09-20T09:15:22;11.87;;;3.50;;
5688;SDS011;2869;50.432;8.680;2022-09-20T09:17:53;8.63;;;3.17;;
5688;SDS011;2869;50.432;8.680;2022-09-20T09:20:21;7.50;;;2.77;;
5688;SDS011;2869;50.432;8.680;2022-09-20T09:22:58;5.33;;;2.60;;
5688;SDS011;2869;50.432;8.680;2022-09-20T09:25:26;13.80;;;3.27;;
5688;SDS011;2869;50.432;8.680;2022-09-20T09:27:57;8.13;;;2.80;;
5688;SDS011;2869;50.432;8.680;2022-09-20T09:30:26;9.70;;;2.57;;
5688;SDS011;2869;50.432;8.680;2022-09-20T09:35:43;10.40;;;2.60;;
5688;SDS011;2869;50.432;8.680;2022-09-20T09:38:19;9.73;;;3.60;;
5688;SDS011;2869;50.432;8.680;2022-09-20T09:40:49;11.20;;;3.37;;
5688;SDS011;2869;50.432;8.680;2022-09-20T09:43:19;13.10;;;2.90;;
5688;SDS011;2869;50.432;8.680;2022-09-20T09:45:51;8.20;;;2.70;;
5688;SDS011;2869;50.432;8.680;2022-09-20T09:48:19;8.20;;;2.87;;
5688;SDS011;2869;50.432;8.680;2022-09-20T09:50:48;5.63;;;2.70;;
5688;SDS011;2869;50.432;8.680;2022-09-20T09:53:17;7.27;;;3.03;;
5688;SDS011;2869;50.432;8.680;2022-09-20T09:55:54;3.77;;;2.53;;
5688;SDS011;2869;50.432;8.680;2022-09-20T09:58:33;6.40;;;2.60;;
5688;SDS011;2869;50.432;8.680;2022-09-20T10:01:12;7.43;;;2.50;;
5688;SDS011;2869;50.432;8.680;2022-09-20T10:03:59;10.43;;;3.13;;
5688;SDS011;2869;50.432;8.680;2022-09-20T10:06:35;11.20;;;3.63;;
5688;SDS011;2869;50.432;8.680;2022-09-20T10:09:12;5.97;;;2.20;;
5688;SDS011;2869;50.432;8.680;2022-09-20T10:11:55;6.17;;;2.40;;
5688;SDS011;2869;50.432;8.680;2022-09-20T10:14:41;9.37;;;2.50;;
5688;SDS011;2869;50.432;8.680;2022-09-20T10:17:22;5.83;;;3.03;;
5688;SDS011;2869;50.432;8.680;2022-09-20T10:20:02;6.50;;;2.80;;
5688;SDS011;2869;50.432;8.680;2022-09-20T10:22:41;6.40;;;2.77;;
5688;SDS011;2869;50.432;8.680;2022-09-20T10:25:19;6.70;;;2.83;;
5688;SDS011;2869;50.432;8.680;2022-09-20T10:27:57;13.13;;;2.57;;
5688;SDS011;2869;50.432;8.680;2022-09-20T10:30:34;9.83;;;2.50;;
5688;SDS011;2869;50.432;8.680;2022-09-20T10:33:13;10.73;;;2.80;;
5688;SDS011;2869;50.432;8.680;2022-09-20T10:35:54;10.80;;;2.30;;
5688;SDS011;2869;50.432;8.680;2022-09-20T10:38:30;7.00;;;2.73;;
5688;SDS011;2869;50.432;8.680;2022-09-20T10:41:05;5.10;;;2.10;;
5688;SDS011;2869;50.432;8.680;2022-09-20T10:43:58;8.90;;;2.13;;
5688;SDS011;2869;50.432;8.680;2022-09-20T10:46:40;6.90;;;2.37;;
5688;SDS011;2869;50.432;8.680;2022-09-20T10:49:18;6.67;;;2.40;;
5688;SDS011;2869;50.432;8.680;2022-09-20T10:51:53;7.47;;;2.20;;
5688;SDS011;2869;50.432;8.680;2022-09-20T10:54:33;4.53;;;1.83;;
5688;SDS011;2869;50.432;8.680;2022-09-20T10:57:15;8.90;;;2.13;;
5688;SDS011;2869;50.432;8.680;2022-09-20T10:59:53;4.50;;;1.73;;
5688;SDS011;2869;50.432;8.680;2022-09-20T11:02:37;8.70;;;2.17;;
5688;SDS011;2869;50.432;8.680;2022-09-20T11:05:23;6.17;;;1.70;;
5688;SDS011;2869;50.432;8.680;2022-09-20T11:08:00;5.03;;;1.60;;
5688;SDS011;2869;50.432;8.680;2022-09-20T11:10:34;2.80;;;1.60;;
5688;SDS011;2869;50.432;8.680;2022-09-20T11:13:09;7.17;;;1.93;;
5688;SDS011;2869;50.432;8.680;2022-09-20T11:15:47;6.27;;;2.30;;
5688;SDS011;2869;50.432;8.680;2022-09-20T11:18:20;5.93;;;1.90;;
5688;SDS011;2869;50.432;8.680;2022-09-20T11:20:52;8.50;;;2.20;;
5688;SDS011;2869;50.432;8.680;2022-09-20T11:23:27;3.63;;;1.70;;
5688;SDS011;2869;50.432;8.680;2022-09-20T11:26:06;8.00;;;2.13;;
5688;SDS011;2869;50.432;8.680;2022-09-20T11:28:39;7.77;;;2.07;;
5688;SDS011;2869;50.432;8.680;2022-09-20T11:31:10;7.03;;;2.20;;
5688;SDS011;2869;50.432;8.680;2022-09-20T11:33:44;3.70;;;2.03;;
5688;SDS011;2869;50.432;8.680;2022-09-20T11:36:17;12.93;;;1.90;;
5688;SDS011;2869;50.432;8.680;2022-09-20T11:38:48;4.27;;;2.20;;
5688;SDS011;2869;50.432;8.680;2022-09-20T11:41:19;9.93;;;2.00;;
5688;SDS011;2869;50.432;8.680;2022-09-20T11:43:52;8.43;;;3.17;;
5688;SDS011;2869;50.432;8.680;2022-09-20T11:46:22;11.90;;;2.63;;
5688;SDS011;2869;50.432;8.680;2022-09-20T11:48:51;3.20;;;1.43;;
5688;SDS011;2869;50.432;8.680;2022-09-20T11:51:26;7.67;;;1.60;;
5688;SDS011;2869;50.432;8.680;2022-09-20T11:54:20;3.33;;;1.20;;
5688;SDS011;2869;50.432;8.680;2022-09-20T11:57:00;2.13;;;1.10;;
5688;SDS011;2869;50.432;8.680;2022-09-20T11:59:31;3.73;;;1.80;;
5688;SDS011;2869;50.432;8.680;2022-09-20T12:02:01;8.27;;;1.50;;
5688;SDS011;2869;50.432;8.680;2022-09-20T12:04:33;7.87;;;1.77;;
5688;SDS011;2869;50.432;8.680;2022-09-20T12:07:02;10.23;;;2.03;;
5688;SDS011;2869;50.432;8.680;2022-09-20T12:09:32;2.10;;;1.37;;
5688;SDS011;2869;50.432;8.680;2022-09-20T12:12:12;2.50;;;1.57;;
5688;SDS011;2869;50.432;8.680;2022-09-20T12:14:44;1.87;;;1.50;;
5688;SDS011;2869;50.432;8.680;2022-09-20T12:26:39;5.50;;;2.30;;
5688;SDS011;2869;50.432;8.680;2022-09-20T12:32:32;4.63;;;2.13;;
5688;SDS011;2869;50.432;8.680;2022-09-20T12:38:32;9.73;;;2.70;;
5688;SDS011;2869;50.432;8.680;2022-09-20T12:41:04;2.27;;;1.97;;
5688;SDS011;2869;50.432;8.680;2022-09-20T12:43:34;5.50;;;2.10;;
5688;SDS011;2869;50.432;8.680;2022-09-20T12:46:03;4.53;;;2.10;;
5688;SDS011;2869;50.432;8.680;2022-09-20T12:48:35;4.33;;;2.23;;
5688;SDS011;2869;50.432;8.680;2022-09-20T12:51:03;5.90;;;2.10;;
5688;SDS011;2869;50.432;8.680;2022-09-20T12:54:00;5.37;;;1.60;;
5688;SDS011;2869;50.432;8.680;2022-09-20T12:56:30;4.47;;;1.73;;
5688;SDS011;2869;50.432;8.680;2022-09-20T12:59:00;4.70;;;1.70;;
5688;SDS011;2869;50.432;8.680;2022-09-20T13:01:31;3.40;;;1.50;;
5688;SDS011;2869;50.432;8.680;2022-09-20T13:07:32;7.00;;;2.30;;
5688;SDS011;2869;50.432;8.680;2022-09-20T13:10:04;5.23;;;1.80;;
5688;SDS011;2869;50.432;8.680;2022-09-20T13:12:43;6.40;;;2.33;;
5688;SDS011;2869;50.432;8.680;2022-09-20T13:15:12;2.60;;;1.70;;
5688;SDS011;2869;50.432;8.680;2022-09-20T13:17:43;4.87;;;1.87;;
5688;SDS011;2869;50.432;8.680;2022-09-20T13:20:14;5.80;;;2.00;;
5688;SDS011;2869;50.432;8.680;2022-09-20T13:22:47;6.30;;;2.13;;
5688;SDS011;2869;50.432;8.680;2022-09-20T13:25:15;3.23;;;1.87;;
5688;SDS011;2869;50.432;8.680;2022-09-20T13:27:46;3.00;;;1.70;;
5688;SDS011;2869;50.432;8.680;2022-09-20T13:30:16;3.10;;;1.37;;
5688;SDS011;2869;50.432;8.680;2022-09-20T13:32:44;3.97;;;1.80;;
5688;SDS011;2869;50.432;8.680;2022-09-20T13:35:12;4.10;;;1.63;;
5688;SDS011;2869;50.432;8.680;2022-09-20T13:37:45;5.10;;;2.23;;
5688;SDS011;2869;50.432;8.680;2022-09-20T13:40:18;4.37;;;2.17;;
5688;SDS011;2869;50.432;8.680;2022-09-20T13:42:46;5.40;;;1.93;;
5688;SDS011;2869;50.432;8.680;2022-09-20T13:45:15;3.50;;;2.00;;
5688;SDS011;2869;50.432;8.680;2022-09-20T13:47:46;6.57;;;2.23;;
5688;SDS011;2869;50.432;8.680;2022-09-20T13:50:16;2.87;;;2.10;;
5688;SDS011;2869;50.432;8.680;2022-09-20T13:52:48;7.27;;;2.13;;
5688;SDS011;2869;50.432;8.680;2022-09-20T13:55:24;4.60;;;2.30;;
5688;SDS011;2869;50.432;8.680;2022-09-20T13:57:53;4.27;;;2.00;;
5688;SDS011;2869;50.432;8.680;2022-09-20T14:00:22;7.33;;;2.73;;
5688;SDS011;2869;50.432;8.680;2022-09-20T14:02:50;4.37;;;2.73;;
5688;SDS011;2869;50.432;8.680;2022-09-20T14:05:18;4.27;;;2.50;;
5688;SDS011;2869;50.432;8.680;2022-09-20T14:07:49;3.87;;;2.53;;
5688;SDS011;2869;50.432;8.680;2022-09-20T14:10:28;7.57;;;2.43;;
5688;SDS011;2869;50.432;8.680;2022-09-20T14:12:56;5.87;;;2.53;;
5688;SDS011;2869;50.432;8.680;2022-09-20T14:15:32;2.63;;;2.43;;
5688;SDS011;2869;50.432;8.680;2022-09-20T14:18:02;7.33;;;2.20;;
5688;SDS011;2869;50.432;8.680;2022-09-20T14:20:31;5.20;;;2.90;;
5688;SDS011;2869;50.432;8.680;2022-09-20T14:23:00;5.27;;;2.40;;
5688;SDS011;2869;50.432;8.680;2022-09-20T14:25:27;6.13;;;2.50;;
5688;SDS011;2869;50.432;8.680;2022-09-20T14:28:03;5.50;;;2.43;;
5688;SDS011;2869;50.432;8.680;2022-09-20T14:30:42;5.40;;;2.67;;
5688;SDS011;2869;50.432;8.680;2022-09-20T14:33:13;5.30;;;2.43;;
5688;SDS011;2869;50.432;8.680;2022-09-20T14:35:47;4.97;;;2.50;;
5688;SDS011;2869;50.432;8.680;2022-09-20T14:38:16;10.13;;;2.57;;
5688;SDS011;2869;50.432;8.680;2022-09-20T14:40:48;2.33;;;2.10;;
5688;SDS011;2869;50.432;8.680;2022-09-20T14:43:20;9.90;;;3.00;;
5688;SDS011;2869;50.432;8.680;2022-09-20T14:45:51;4.47;;;2.63;;
5688;SDS011;2869;50.432;8.680;2022-09-20T14:51:10;2.13;;;1.93;;
5688;SDS011;2869;50.432;8.680;2022-09-20T14:53:49;3.90;;;2.10;;
5688;SDS011;2869;50.432;8.680;2022-09-20T14:56:24;3.00;;;2.10;;
5688;SDS011;2869;50.432;8.680;2022-09-20T14:58:59;2.67;;;1.90;;
5688;SDS011;2869;50.432;8.680;2022-09-20T15:01:31;4.13;;;2.10;;
5688;SDS011;2869;50.432;8.680;2022-09-20T15:03:59;3.30;;;2.20;;
5688;SDS011;2869;50.432;8.680;2022-09-20T15:06:33;3.27;;;2.10;;
5688;SDS011;2869;50.432;8.680;2022-09-20T15:09:01;3.60;;;1.83;;
5688;SDS011;2869;50.432;8.680;2022-09-20T15:11:28;3.00;;;1.80;;
5688;SDS011;2869;50.432;8.680;2022-09-20T15:13:55;3.23;;;1.80;;
5688;SDS011;2869;50.432;8.680;2022-09-20T15:16:22;3.57;;;2.10;;
5688;SDS011;2869;50.432;8.680;2022-09-20T15:18:48;8.80;;;2.07;;
5688;SDS011;2869;50.432;8.680;2022-09-20T15:21:15;6.10;;;2.67;;
5688;SDS011;2869;50.432;8.680;2022-09-20T15:23:41;2.72;;;1.80;;
5688;SDS011;2869;50.432;8.680;2022-09-20T15:26:10;5.00;;;1.63;;
5688;SDS011;2869;50.432;8.680;2022-09-20T15:28:39;9.30;;;2.00;;
5688;SDS011;2869;50.432;8.680;2022-09-20T15:31:05;1.97;;;1.57;;
5688;SDS011;2869;50.432;8.680;2022-09-20T15:33:32;2.40;;;1.80;;
5688;SDS011;2869;50.432;8.680;2022-09-20T15:36:00;2.03;;;1.53;;
5688;SDS011;2869;50.432;8.680;2022-09-20T15:38:27;7.43;;;1.73;;
5688;SDS011;2869;50.432;8.680;2022-09-20T15:40:54;3.30;;;1.70;;
5688;SDS011;2869;50.432;8.680;2022-09-20T15:43:22;2.20;;;2.00;;
5688;SDS011;2869;50.432;8.680;2022-09-20T15:45:51;2.27;;;1.80;;
5688;SDS011;2869;50.432;8.680;2022-09-20T15:48:20;5.00;;;1.77;;
5688;SDS011;2869;50.432;8.680;2022-09-20T15:50:57;6.63;;;2.53;;
5688;SDS011;2869;50.432;8.680;2022-09-20T15:53:26;3.10;;;1.90;;
5688;SDS011;2869;50.432;8.680;2022-09-20T15:55:53;2.57;;;1.80;;
5688;SDS011;2869;50.432;8.680;2022-09-20T15:58:20;2.23;;;2.03;;
5688;SDS011;2869;50.432;8.680;2022-09-20T16:00:51;2.60;;;2.00;;
5688;SDS011;2869;50.432;8.680;2022-09-20T16:03:17;6.40;;;3.20;;
5688;SDS011;2869;50.432;8.680;2022-09-20T16:05:44;4.60;;;2.23;;
5688;SDS011;2869;50.432;8.680;2022-09-20T16:08:23;6.23;;;4.30;;
5688;SDS011;2869;50.432;8.680;2022-09-20T16:10:54;10.13;;;6.80;;
5688;SDS011;2869;50.432;8.680;2022-09-20T16:13:21;4.40;;;3.57;;
5688;SDS011;2869;50.432;8.680;2022-09-20T16:15:53;7.53;;;6.30;;
5688;SDS011;2869;50.432;8.680;2022-09-20T16:18:20;12.20;;;7.37;;
5688;SDS011;2869;50.432;8.680;2022-09-20T16:21:05;2.50;;;2.10;;
5688;SDS011;2869;50.432;8.680;2022-09-20T16:23:32;4.37;;;2.37;;
5688;SDS011;2869;50.432;8.680;2022-09-20T16:26:01;2.40;;;2.30;;
5688;SDS011;2869;50.432;8.680;2022-09-20T16:28:28;2.63;;;2.43;;
5688;SDS011;2869;50.432;8.680;2022-09-20T16:30:56;2.50;;;2.30;;
5688;SDS011;2869;50.432;8.680;2022-09-20T16:33:23;7.23;;;3.00;;
5688;SDS011;2869;50.432;8.680;2022-09-20T16:35:50;5.33;;;3.10;;
5688;SDS011;2869;50.432;8.680;2022-09-20T16:38:17;3.33;;;3.00;;
5688;SDS011;2869;50.432;8.680;2022-09-20T16:40:46;4.13;;;2.67;;
5688;SDS011;2869;50.432;8.680;2022-09-20T16:43:15;4.60;;;3.17;;